Time;durP1;ratioP1;P1;durP2;ratioP2;P2;SDS_P1;SDS_P2;PMS_P1;PMS_P2;Temp;Humidity;BMP_temperature;BMP_pressure;BME280_temperature;BME280_humidity;BME280_pressure;Samples;Min_cycle;Max_cycle;Signal;HPM_P1;HPM_P2
2023/05/13 00:01:53;;;;;;;3.85;3.08;;;18.60;39.60;;;;;;5054666;28;20044;-70
2023/05/13 00:04:18;;;;;;;3.83;3.10;;;18.60;39.60;;;;;;5053314;28;20418;-70
2023/05/13 00:06:44;;;;;;;4.45;3.00;;;18.60;39.60;;;;;;5054717;28;20098;-70
2023/05/13 00:09:10;;;;;;;3.83;3.00;;;18.60;39.60;;;;;;5054648;28;20033;-70
2023/05/13 00:11:36;;;;;;;5.13;3.17;;;18.60;39.60;;;;;;5054499;28;20029;-69
2023/05/13 00:14:01;;;;;;;4.05;3.10;;;18.60;39.50;;;;;;5054221;28;20025;-70
2023/05/13 00:16:28;;;;;;;4.03;2.70;;;18.60;39.50;;;;;;5054223;28;20036;-70
2023/05/13 00:18:55;;;;;;;4.03;2.75;;;18.70;39.60;;;;;;5054411;28;20029;-70
2023/05/13 00:21:21;;;;;;;4.10;3.17;;;18.70;39.60;;;;;;5052597;28;20403;-70
2023/05/13 00:23:47;;;;;;;5.32;2.83;;;18.70;39.60;;;;;;5054122;28;20021;-70
2023/05/13 00:26:12;;;;;;;3.92;3.05;;;18.70;39.60;;;;;;5054182;28;20036;-70
2023/05/13 00:28:38;;;;;;;3.58;2.92;;;18.70;39.70;;;;;;5054576;28;20037;-70
2023/05/13 00:31:04;;;;;;;3.33;2.58;;;18.70;39.90;;;;;;5053671;28;20502;-71
2023/05/13 00:33:29;;;;;;;4.70;2.90;;;18.70;39.90;;;;;;5053779;28;20056;-71
2023/05/13 00:35:55;;;;;;;4.13;3.10;;;18.60;39.90;;;;;;5054194;28;20021;-69
2023/05/13 00:38:21;;;;;;;3.47;2.72;;;18.60;40.10;;;;;;5054081;28;20029;-70
2023/05/13 00:40:47;;;;;;;3.92;3.00;;;18.60;40.30;;;;;;5053978;28;20032;-70
2023/05/13 00:43:13;;;;;;;4.85;3.13;;;18.60;40.50;;;;;;5052120;28;20143;-69
2023/05/13 00:45:38;;;;;;;3.72;3.00;;;18.50;40.50;;;;;;5052969;28;20131;-70
2023/05/13 00:48:08;;;;;;;4.55;3.00;;;18.50;40.50;;;;;;5053824;28;20493;-70
2023/05/13 00:50:33;;;;;;;3.40;2.90;;;18.50;40.60;;;;;;5053980;28;20036;-70
2023/05/13 00:53:00;;;;;;;4.03;3.00;;;18.40;40.60;;;;;;5053654;28;20021;-70
2023/05/13 00:55:26;;;;;;;3.20;2.70;;;18.40;40.60;;;;;;5053409;28;20460;-70
2023/05/13 00:57:52;;;;;;;5.97;3.40;;;18.40;41.30;;;;;;5053192;28;20079;-73
2023/05/13 01:00:18;;;;;;;3.40;3.10;;;18.40;40.80;;;;;;5053935;28;20452;-70
2023/05/13 01:02:44;;;;;;;4.05;2.90;;;18.30;40.70;;;;;;5053693;28;20040;-70
2023/05/13 01:05:31;;;;;;;3.20;2.90;;;18.40;40.80;;;;;;5053380;28;20025;-69
2023/05/13 01:07:57;;;;;;;3.67;3.00;;;18.30;40.80;;;;;;5053561;28;20025;-69
2023/05/13 01:10:42;;;;;;;4.90;3.20;;;18.30;40.90;;;;;;5053129;28;20078;-69
2023/05/13 01:13:11;;;;;;;4.00;3.00;;;18.30;41.20;;;;;;5053357;28;20032;-69
2023/05/13 01:15:48;;;;;;;3.90;3.10;;;18.20;41.70;;;;;;5051789;28;20057;-69
2023/05/13 01:18:32;;;;;;;3.60;3.00;;;18.20;41.20;;;;;;5052058;28;20036;-69
2023/05/13 01:21:00;;;;;;;3.40;2.80;;;18.20;41.30;;;;;;5052405;28;20440;-69
2023/05/13 01:23:26;;;;;;;5.00;3.05;;;18.10;41.00;;;;;;5053334;28;20025;-69
2023/05/13 01:25:51;;;;;;;3.83;3.10;;;18.20;41.20;;;;;;5052967;28;20028;-70
2023/05/13 01:28:17;;;;;;;5.35;3.45;;;18.10;41.20;;;;;;5052921;28;20376;-70
2023/05/13 01:30:44;;;;;;;5.80;3.80;;;18.10;41.20;;;;;;5053108;28;20068;-70
2023/05/13 01:33:10;;;;;;;4.88;3.70;;;18.10;41.30;;;;;;5053096;28;20017;-69
2023/05/13 01:35:36;;;;;;;7.10;4.43;;;18.00;41.50;;;;;;5052412;28;20482;-70
2023/05/13 01:38:03;;;;;;;4.57;4.00;;;18.00;41.70;;;;;;5053128;28;20036;-69
2023/05/13 01:40:30;;;;;;;5.32;3.78;;;17.90;41.70;;;;;;5052824;28;20036;-69
2023/05/13 01:42:55;;;;;;;4.70;3.65;;;17.90;41.70;;;;;;5030693;28;20032;-70
2023/05/13 01:45:21;;;;;;;4.03;3.53;;;17.90;41.70;;;;;;5031387;28;20029;-69
2023/05/13 01:47:46;;;;;;;3.90;3.22;;;17.90;41.80;;;;;;5032579;28;20025;-70
2023/05/13 01:50:12;;;;;;;4.38;3.55;;;17.90;41.90;;;;;;5031416;28;20022;-70
2023/05/13 01:52:38;;;;;;;4.57;3.55;;;17.90;42.10;;;;;;5033001;28;20095;-70
2023/05/13 01:55:04;;;;;;;4.50;3.80;;;17.80;42.20;;;;;;5032773;28;20546;-70
2023/05/13 01:57:29;;;;;;;4.53;3.85;;;17.70;42.30;;;;;;5029935;28;20088;-70
2023/05/13 01:59:55;;;;;;;4.82;3.85;;;17.70;42.50;;;;;;5032907;28;20026;-70
2023/05/13 02:02:20;;;;;;;5.70;3.78;;;17.60;42.50;;;;;;5031441;28;20460;-68
2023/05/13 02:04:46;;;;;;;5.53;3.70;;;17.60;42.60;;;;;;5032448;28;20116;-70
2023/05/13 02:07:12;;;;;;;4.30;3.50;;;17.60;42.60;;;;;;5032358;28;20064;-70
2023/05/13 02:09:37;;;;;;;4.18;3.42;;;17.60;42.70;;;;;;5032237;28;20076;-70
2023/05/13 02:12:03;;;;;;;5.10;3.72;;;17.60;42.70;;;;;;5031645;28;20021;-70
2023/05/13 02:14:29;;;;;;;4.95;3.67;;;17.60;42.70;;;;;;5032723;28;20095;-70
2023/05/13 02:16:54;;;;;;;4.63;3.22;;;17.60;42.80;;;;;;5031840;28;20042;-70
2023/05/13 02:19:20;;;;;;;4.80;3.40;;;17.60;42.90;;;;;;5035166;28;20029;-70
2023/05/13 02:21:46;;;;;;;4.30;3.75;;;17.60;43.10;;;;;;5052346;28;20033;-69
2023/05/13 02:24:12;;;;;;;4.45;3.70;;;17.60;43.20;;;;;;5052389;28;20086;-70
2023/05/13 02:26:40;;;;;;;4.32;3.70;;;17.60;43.20;;;;;;5052450;28;20032;-70
2023/05/13 02:29:06;;;;;;;4.03;3.20;;;17.60;43.20;;;;;;5051948;28;20067;-70
2023/05/13 02:31:32;;;;;;;4.88;3.50;;;17.60;43.30;;;;;;5052547;28;20095;-71
2023/05/13 02:33:57;;;;;;;4.88;4.07;;;17.70;43.70;;;;;;5052170;28;20537;-71
2023/05/13 02:36:23;;;;;;;5.25;3.90;;;17.70;43.90;;;;;;5052469;28;20117;-69
2023/05/13 02:38:48;;;;;;;4.70;3.65;;;17.70;43.80;;;;;;5051832;28;20028;-71
2023/05/13 02:41:14;;;;;;;4.88;3.60;;;17.70;44.00;;;;;;5051902;28;20451;-71
2023/05/13 02:43:40;;;;;;;4.68;3.58;;;17.70;44.20;;;;;;5051214;28;20417;-69
2023/05/13 02:46:05;;;;;;;5.00;4.25;;;17.60;44.20;;;;;;5052219;28;20029;-71
2023/05/13 02:48:31;;;;;;;6.13;3.78;;;17.60;44.40;;;;;;5050521;28;20068;-71
2023/05/13 02:50:57;;;;;;;3.88;3.42;;;17.60;44.50;;;;;;5052487;28;20025;-70
2023/05/13 02:53:23;;;;;;;5.07;3.53;;;17.60;44.50;;;;;;5052234;28;20029;-71
2023/05/13 02:55:48;;;;;;;5.38;3.83;;;17.60;44.70;;;;;;5052322;28;20025;-71
2023/05/13 02:58:15;;;;;;;4.97;3.58;;;17.60;44.70;;;;;;5051544;28;20041;-71
2023/05/13 03:00:41;;;;;;;4.47;3.58;;;17.60;44.80;;;;;;5052079;28;20025;-71
2023/05/13 03:03:07;;;;;;;5.93;3.70;;;17.70;45.00;;;;;;5050528;28;20025;-69
2023/05/13 03:05:33;;;;;;;4.30;3.65;;;17.70;45.10;;;;;;5052040;28;20021;-71
2023/05/13 03:07:58;;;;;;;5.82;3.80;;;17.70;45.30;;;;;;5052029;28;20103;-70
2023/05/13 03:10:24;;;;;;;4.72;3.60;;;17.70;45.40;;;;;;5055223;28;20036;-71
2023/05/13 03:12:50;;;;;;;4.65;3.40;;;17.70;45.50;;;;;;5055586;28;20025;-71
2023/05/13 03:15:15;;;;;;;4.47;3.72;;;17.70;45.50;;;;;;5055598;28;20035;-71
2023/05/13 03:17:43;;;;;;;4.38;3.58;;;17.80;45.50;;;;;;5055395;28;20132;-70
2023/05/13 03:20:09;;;;;;;4.75;3.45;;;17.80;45.60;;;;;;5054953;28;20040;-70
2023/05/13 03:22:37;;;;;;;4.25;3.25;;;17.80;45.50;;;;;;5054053;28;20110;-70
2023/05/13 03:25:07;;;;;;;4.43;3.40;;;17.90;45.70;;;;;;5055239;28;20025;-69
2023/05/13 03:27:32;;;;;;;3.97;3.50;;;17.90;45.90;;;;;;5054079;28;20040;-70
2023/05/13 03:29:58;;;;;;;4.53;3.40;;;17.90;45.90;;;;;;5054765;28;20033;-70
2023/05/13 03:32:29;;;;;;;4.80;3.22;;;17.90;46.00;;;;;;5055343;28;20025;-70
2023/05/13 03:34:59;;;;;;;7.03;3.80;;;17.90;46.10;;;;;;5054906;28;20029;-71
2023/05/13 03:37:25;;;;;;;4.82;3.38;;;17.90;46.10;;;;;;5055158;28;20037;-69
2023/05/13 03:39:51;;;;;;;4.90;3.50;;;17.90;46.30;;;;;;5054964;28;20100;-71
2023/05/13 03:42:17;;;;;;;4.50;3.60;;;17.90;46.30;;;;;;5054562;28;20379;-70
2023/05/13 03:44:42;;;;;;;4.45;3.25;;;18.00;46.40;;;;;;5053770;28;20036;-69
2023/05/13 03:47:08;;;;;;;4.05;3.30;;;18.00;46.30;;;;;;5054983;28;20475;-70
2023/05/13 03:49:33;;;;;;;4.25;3.47;;;18.00;46.20;;;;;;5054994;28;20029;-69
2023/05/13 03:51:59;;;;;;;4.80;2.95;;;18.00;46.10;;;;;;5054712;28;20104;-70
2023/05/13 03:54:25;;;;;;;4.20;3.08;;;18.10;46.00;;;;;;5053692;28;20082;-70
2023/05/13 03:56:50;;;;;;;4.10;3.00;;;18.10;46.00;;;;;;5054535;28;20036;-69
2023/05/13 03:59:16;;;;;;;3.92;3.20;;;18.20;46.00;;;;;;5054041;28;20025;-70
2023/05/13 04:01:41;;;;;;;3.75;2.80;;;18.30;45.90;;;;;;5040767;28;20464;-71
2023/05/13 04:04:07;;;;;;;4.40;3.17;;;18.30;45.80;;;;;;5035166;28;20030;-70
2023/05/13 04:06:33;;;;;;;6.03;3.33;;;18.40;45.80;;;;;;5034456;28;20030;-71
2023/05/13 04:08:58;;;;;;;6.35;2.95;;;18.40;45.80;;;;;;5034337;28;20052;-71
2023/05/13 04:11:24;;;;;;;3.45;2.70;;;18.50;45.80;;;;;;5031946;28;20361;-71
2023/05/13 04:13:50;;;;;;;4.97;3.03;;;18.50;45.60;;;;;;5034355;28;20452;-71
2023/05/13 04:16:16;;;;;;;3.97;2.83;;;18.60;45.70;;;;;;5034496;28;20060;-71
2023/05/13 04:18:42;;;;;;;4.22;3.05;;;18.60;45.70;;;;;;5034479;28;20428;-70
2023/05/13 04:21:08;;;;;;;3.97;3.13;;;18.70;45.70;;;;;;5051095;28;20525;-71
2023/05/13 04:23:34;;;;;;;3.38;2.80;;;18.70;45.80;;;;;;5054059;28;20036;-71
2023/05/13 04:26:00;;;;;;;3.47;2.90;;;18.70;45.80;;;;;;5054319;28;20029;-69
2023/05/13 04:28:26;;;;;;;3.08;2.42;;;18.80;46.00;;;;;;5053622;28;20394;-69
2023/05/13 04:30:51;;;;;;;3.85;2.63;;;18.80;46.00;;;;;;5053811;28;20130;-69
2023/05/13 04:33:17;;;;;;;4.22;3.17;;;18.80;45.90;;;;;;5053941;28;20074;-70
2023/05/13 04:35:43;;;;;;;3.30;2.78;;;18.80;46.00;;;;;;5053989;28;20059;-70
2023/05/13 04:38:09;;;;;;;3.35;2.65;;;18.80;45.90;;;;;;5054118;28;20036;-71
2023/05/13 04:40:34;;;;;;;2.70;2.42;;;18.90;45.90;;;;;;5053158;28;20029;-69
2023/05/13 04:43:00;;;;;;;3.58;2.80;;;18.90;45.90;;;;;;5053348;28;20440;-70
2023/05/13 04:45:26;;;;;;;3.58;2.65;;;19.00;45.90;;;;;;5052581;28;20370;-70
2023/05/13 04:47:51;;;;;;;3.42;2.67;;;19.00;45.80;;;;;;5053669;28;20033;-70
2023/05/13 04:50:17;;;;;;;3.38;2.63;;;19.00;45.80;;;;;;5053891;28;20031;-70
2023/05/13 04:52:43;;;;;;;4.15;2.67;;;19.00;45.70;;;;;;5051942;28;20024;-70
2023/05/13 04:55:09;;;;;;;5.90;2.90;;;19.10;45.70;;;;;;5052189;28;20033;-70
2023/05/13 04:57:35;;;;;;;3.45;2.40;;;19.10;45.60;;;;;;5053620;28;20036;-70
2023/05/13 05:00:01;;;;;;;2.95;2.40;;;19.10;45.60;;;;;;5053638;28;20360;-70
2023/05/13 05:02:28;;;;;;;3.53;2.40;;;19.20;45.60;;;;;;5053300;28;20463;-70
2023/05/13 05:04:55;;;;;;;4.20;2.80;;;19.20;45.50;;;;;;5053421;28;20463;-71
2023/05/13 05:07:20;;;;;;;3.35;2.65;;;19.20;45.30;;;;;;5053918;28;20143;-69
2023/05/13 05:09:46;;;;;;;4.00;2.53;;;19.30;45.30;;;;;;5053552;28;20048;-69
2023/05/13 05:12:12;;;;;;;2.42;2.22;;;19.30;45.20;;;;;;5053051;28;20036;-69
2023/05/13 05:14:37;;;;;;;3.90;2.30;;;19.40;45.20;;;;;;5052955;28;20025;-69
2023/05/13 05:17:03;;;;;;;4.53;2.10;;;19.40;45.00;;;;;;5053357;28;20033;-69
2023/05/13 05:19:49;;;;;;;5.82;2.38;;;19.50;44.90;;;;;;5053513;28;20439;-70
2023/05/13 05:22:15;;;;;;;3.90;2.00;;;19.60;44.90;;;;;;5053355;28;20136;-69
2023/05/13 05:24:40;;;;;;;2.42;1.95;;;19.60;44.50;;;;;;5052550;28;20059;-69
2023/05/13 05:27:06;;;;;;;2.13;1.92;;;19.70;44.50;;;;;;5053089;28;20391;-69
2023/05/13 05:29:31;;;;;;;2.38;2.17;;;19.80;44.30;;;;;;5053051;28;20124;-71
2023/05/13 05:31:57;;;;;;;2.38;2.10;;;19.80;44.20;;;;;;5053156;28;20048;-69
2023/05/13 05:34:23;;;;;;;2.85;2.10;;;19.90;44.10;;;;;;5052758;28;20459;-70
2023/05/13 05:36:48;;;;;;;3.08;2.00;;;19.90;43.80;;;;;;5052421;28;20044;-70
2023/05/13 05:39:14;;;;;;;2.35;2.10;;;19.90;43.70;;;;;;5052601;28;20079;-69
2023/05/13 05:41:40;;;;;;;2.20;2.00;;;20.00;43.70;;;;;;5052913;28;20037;-69
2023/05/13 05:44:06;;;;;;;1.95;1.83;;;20.00;43.70;;;;;;5052720;28;20021;-69
2023/05/13 05:46:31;;;;;;;2.30;2.10;;;20.10;43.60;;;;;;5053055;28;20064;-69
2023/05/13 05:48:57;;;;;;;2.20;2.00;;;20.10;43.50;;;;;;5052338;28;20029;-71
2023/05/13 05:51:22;;;;;;;2.92;2.00;;;20.20;43.50;;;;;;5052783;28;20387;-70
2023/05/13 05:53:48;;;;;;;2.92;2.22;;;20.20;43.40;;;;;;5052243;28;20025;-71
2023/05/13 05:56:14;;;;;;;2.58;2.00;;;20.30;43.40;;;;;;5052938;28;20032;-71
2023/05/13 05:58:40;;;;;;;1.98;1.85;;;20.30;43.40;;;;;;5052930;28;20029;-71
2023/05/13 06:01:06;;;;;;;2.10;1.90;;;20.30;43.30;;;;;;5050979;28;20025;-69
2023/05/13 06:03:32;;;;;;;2.83;1.90;;;20.40;43.30;;;;;;5052638;28;20830;-70
2023/05/13 06:05:58;;;;;;;2.90;1.98;;;20.40;43.20;;;;;;5051283;28;20025;-70
2023/05/13 06:08:28;;;;;;;1.90;1.50;;;20.50;43.20;;;;;;5052448;28;20021;-69
2023/05/13 06:10:55;;;;;;;2.03;1.83;;;20.50;43.00;;;;;;5052897;28;20025;-73
2023/05/13 06:13:21;;;;;;;2.30;1.98;;;20.60;42.90;;;;;;5051126;28;20029;-72
2023/05/13 06:15:47;;;;;;;1.85;1.60;;;20.60;42.80;;;;;;5052354;28;20537;-75
2023/05/13 06:18:13;;;;;;;3.45;1.80;;;20.70;42.60;;;;;;5052503;28;20041;-71
2023/05/13 06:20:39;;;;;;;2.42;2.05;;;20.70;42.80;;;;;;5052493;28;20064;-70
2023/05/13 06:23:06;;;;;;;1.98;1.55;;;20.80;43.10;;;;;;5052094;28;20037;-71
2023/05/13 06:25:31;;;;;;;2.97;1.95;;;20.80;42.90;;;;;;5051990;28;20035;-70
2023/05/13 06:27:57;;;;;;;4.13;1.73;;;20.90;42.80;;;;;;5052464;28;20029;-70
2023/05/13 06:30:23;;;;;;;1.92;1.83;;;21.00;42.70;;;;;;5052419;28;20535;-70
2023/05/13 06:32:49;;;;;;;1.83;1.55;;;21.00;42.60;;;;;;5052494;28;20044;-69
2023/05/13 06:35:14;;;;;;;2.15;1.65;;;21.10;42.50;;;;;;5052364;28;20032;-72
2023/05/13 06:37:40;;;;;;;2.63;1.40;;;21.20;42.50;;;;;;5051856;28;20128;-72
2023/05/13 06:40:06;;;;;;;1.52;1.42;;;21.20;42.30;;;;;;5050740;28;20016;-72
2023/05/13 06:42:32;;;;;;;2.33;1.83;;;21.30;42.10;;;;;;5051131;28;20037;-73
2023/05/13 06:44:58;;;;;;;3.47;1.65;;;21.40;42.00;;;;;;5055327;28;20033;-73
2023/05/13 06:47:23;;;;;;;2.92;1.73;;;21.40;41.90;;;;;;5055531;28;20407;-73
2023/05/13 06:49:49;;;;;;;2.33;1.48;;;21.40;41.80;;;;;;5055020;28;20112;-73
2023/05/13 06:52:15;;;;;;;3.10;1.45;;;21.50;41.80;;;;;;5055824;28;20039;-73
2023/05/13 06:54:40;;;;;;;1.77;1.50;;;21.60;41.70;;;;;;5055320;28;20025;-73
2023/05/13 06:57:06;;;;;;;1.50;1.40;;;21.60;41.60;;;;;;5056104;28;20033;-72
2023/05/13 06:59:32;;;;;;;1.88;1.45;;;21.60;41.30;;;;;;5056082;28;20453;-73
2023/05/13 07:01:58;;;;;;;1.75;1.45;;;21.60;41.20;;;;;;5055812;28;20021;-73
2023/05/13 07:04:23;;;;;;;1.23;1.13;;;21.60;41.10;;;;;;5055549;28;20031;-73
2023/05/13 07:06:50;;;;;;;1.77;1.67;;;21.70;41.00;;;;;;5055302;28;20379;-72
2023/05/13 07:09:16;;;;;;;1.85;1.30;;;21.60;40.80;;;;;;5055911;28;20029;-73
2023/05/13 07:11:41;;;;;;;1.48;1.38;;;21.60;40.80;;;;;;5055794;28;20040;-73
2023/05/13 07:14:07;;;;;;;1.60;1.50;;;21.60;40.90;;;;;;5055756;28;20521;-72
2023/05/13 07:16:33;;;;;;;1.50;1.40;;;21.70;41.00;;;;;;5055222;28;20379;-74
2023/05/13 07:18:59;;;;;;;3.17;1.50;;;21.70;41.00;;;;;;5055506;28;20025;-73
2023/05/13 07:21:24;;;;;;;2.80;1.40;;;21.80;41.00;;;;;;5055251;28;20759;-74
2023/05/13 07:23:50;;;;;;;1.77;1.50;;;21.80;40.90;;;;;;5055847;28;20387;-74
2023/05/13 07:26:15;;;;;;;1.50;1.40;;;21.90;40.80;;;;;;5054368;28;20116;-73
2023/05/13 07:28:42;;;;;;;1.58;1.45;;;21.90;40.70;;;;;;5054924;28;20029;-74
2023/05/13 07:31:07;;;;;;;1.65;1.55;;;21.90;40.60;;;;;;5055365;28;20076;-73
2023/05/13 07:33:34;;;;;;;1.65;1.30;;;21.90;40.60;;;;;;5055164;28;20055;-73
2023/05/13 07:36:00;;;;;;;1.67;1.58;;;22.00;40.60;;;;;;5055127;28;20032;-72
2023/05/13 07:38:25;;;;;;;2.50;1.38;;;21.90;40.50;;;;;;5055060;28;20040;-73
2023/05/13 07:40:51;;;;;;;1.90;1.50;;;22.00;40.50;;;;;;5054545;28;20114;-72
2023/05/13 07:43:22;;;;;;;2.75;1.40;;;22.00;40.50;;;;;;5053877;28;20066;-72
2023/05/13 07:45:49;;;;;;;2.85;1.60;;;22.00;40.50;;;;;;5054045;28;20025;-73
2023/05/13 07:48:16;;;;;;;1.67;1.55;;;22.00;40.40;;;;;;5054713;28;20029;-73
2023/05/13 07:50:43;;;;;;;2.88;1.45;;;22.00;40.30;;;;;;5053543;28;20036;-71
2023/05/13 07:53:08;;;;;;;1.30;1.20;;;22.10;40.20;;;;;;5053389;28;20060;-73
2023/05/13 07:55:34;;;;;;;1.58;1.45;;;22.10;40.10;;;;;;5053572;28;20037;-72
2023/05/13 07:58:00;;;;;;;2.03;1.42;;;22.10;40.10;;;;;;5053270;28;20036;-73
2023/05/13 08:00:25;;;;;;;2.58;1.60;;;22.10;40.00;;;;;;5054747;28;20059;-74
2023/05/13 08:02:51;;;;;;;1.85;1.40;;;22.10;40.00;;;;;;5053049;28;20139;-72
2023/05/13 08:05:16;;;;;;;2.45;1.40;;;22.10;40.00;;;;;;5054838;28;20032;-72
2023/05/13 08:07:42;;;;;;;1.50;1.40;;;22.10;39.90;;;;;;5054588;28;20044;-73
2023/05/13 08:10:08;;;;;;;4.65;1.75;;;22.10;39.90;;;;;;5054290;28;20499;-73
2023/05/13 08:12:33;;;;;;;2.55;1.58;;;22.10;39.90;;;;;;5054626;28;20100;-73
2023/05/13 08:15:02;;;;;;;1.70;1.60;;;22.10;39.90;;;;;;5052775;28;20025;-74
2023/05/13 08:17:28;;;;;;;1.48;1.30;;;22.10;39.80;;;;;;5052302;28;20391;-73
2023/05/13 08:19:54;;;;;;;3.60;1.60;;;22.20;39.80;;;;;;5053097;28;20029;-72
2023/05/13 08:22:20;;;;;;;3.35;1.40;;;22.20;39.70;;;;;;5054763;28;20032;-73
2023/05/13 08:24:45;;;;;;;1.50;1.30;;;22.20;39.70;;;;;;5053973;28;20031;-72
2023/05/13 08:27:11;;;;;;;2.55;1.90;;;22.20;39.70;;;;;;5054243;28;20025;-73
2023/05/13 08:29:37;;;;;;;3.53;2.78;;;22.20;39.70;;;;;;5052258;28;20384;-73
2023/05/13 08:32:03;;;;;;;2.58;2.20;;;22.20;39.60;;;;;;5053955;28;20041;-72
2023/05/13 08:34:29;;;;;;;2.97;2.30;;;22.20;39.50;;;;;;5054309;28;20021;-72
2023/05/13 08:36:55;;;;;;;2.13;1.80;;;22.30;39.40;;;;;;5054071;28;20471;-72
2023/05/13 08:39:20;;;;;;;2.35;1.58;;;22.20;39.30;;;;;;5053531;28;20498;-73
2023/05/13 08:41:48;;;;;;;3.25;1.80;;;22.30;39.20;;;;;;5053616;28;20147;-73
2023/05/13 08:44:17;;;;;;;2.40;1.65;;;22.30;39.90;;;;;;5053837;28;20370;-72
2023/05/13 08:46:49;;;;;;;2.15;1.70;;;22.30;39.20;;;;;;5053658;28;20029;-72
2023/05/13 08:49:14;;;;;;;2.35;1.70;;;22.30;39.20;;;;;;5054342;28;20021;-72
2023/05/13 08:51:41;;;;;;;2.05;1.63;;;22.30;39.20;;;;;;5053384;28;20556;-73
2023/05/13 08:54:10;;;;;;;1.67;1.58;;;22.30;39.20;;;;;;5053632;28;20032;-72
2023/05/13 08:56:36;;;;;;;1.67;1.58;;;22.30;39.20;;;;;;5052396;28;20033;-72
2023/05/13 08:59:01;;;;;;;2.35;1.52;;;22.30;39.10;;;;;;5053308;28;20035;-71
2023/05/13 09:01:28;;;;;;;2.05;1.77;;;22.40;39.10;;;;;;5053164;28;20080;-72
2023/05/13 09:03:58;;;;;;;1.60;1.27;;;22.30;39.00;;;;;;5053661;28;20052;-73
2023/05/13 09:06:24;;;;;;;1.98;1.60;;;22.40;38.90;;;;;;5053161;28;20025;-72
2023/05/13 09:08:50;;;;;;;2.38;1.15;;;22.30;38.70;;;;;;5052045;28;20031;-72
2023/05/13 09:11:16;;;;;;;2.42;1.38;;;22.30;38.70;;;;;;5053265;28;20052;-72
2023/05/13 09:13:43;;;;;;;3.42;1.60;;;22.30;38.70;;;;;;5053230;28;20108;-71
2023/05/13 09:16:11;;;;;;;1.40;1.30;;;22.40;38.80;;;;;;5052185;28;20380;-72
2023/05/13 09:18:38;;;;;;;1.52;1.42;;;22.40;38.80;;;;;;5051774;28;20037;-72
2023/05/13 09:21:24;;;;;;;1.67;1.35;;;22.40;38.80;;;;;;5052632;28;20029;-71
2023/05/13 09:24:04;;;;;;;2.10;1.40;;;22.40;38.80;;;;;;5053400;28;20078;-72
2023/05/13 09:26:30;;;;;;;1.40;1.30;;;22.40;38.90;;;;;;5053086;28;20434;-72
2023/05/13 09:29:14;;;;;;;1.83;1.70;;;22.40;38.90;;;;;;5052668;28;20037;-72
2023/05/13 09:31:40;;;;;;;1.88;1.60;;;22.50;38.70;;;;;;5052712;28;20060;-72
2023/05/13 09:34:05;;;;;;;1.92;1.70;;;22.50;38.80;;;;;;5053123;28;20033;-73
2023/05/13 09:36:31;;;;;;;1.75;1.60;;;22.50;38.90;;;;;;5052824;28;20068;-72
2023/05/13 09:38:58;;;;;;;1.98;1.77;;;22.50;38.90;;;;;;5051501;28;20025;-72
2023/05/13 09:41:26;;;;;;;1.75;1.48;;;22.60;38.90;;;;;;5052103;28;20029;-72
2023/05/13 09:43:51;;;;;;;2.80;1.63;;;22.60;38.80;;;;;;5052826;28;20021;-72
2023/05/13 09:46:17;;;;;;;2.35;1.58;;;22.60;38.80;;;;;;5052903;28;20463;-72
2023/05/13 09:48:43;;;;;;;1.95;1.58;;;22.70;38.80;;;;;;5052075;28;20502;-72
2023/05/13 09:51:08;;;;;;;1.58;1.48;;;22.70;38.70;;;;;;5052536;28;20025;-73
2023/05/13 09:53:34;;;;;;;1.73;1.58;;;22.70;38.70;;;;;;5052007;28;20025;-72
2023/05/13 09:56:00;;;;;;;1.55;1.45;;;22.80;38.70;;;;;;5052705;28;20040;-72
2023/05/13 09:58:27;;;;;;;1.55;1.40;;;22.80;38.60;;;;;;5051694;28;20033;-73
2023/05/13 10:00:54;;;;;;;2.15;1.30;;;22.80;38.50;;;;;;5051182;28;20025;-72
2023/05/13 10:03:21;;;;;;;1.85;1.58;;;22.80;38.40;;;;;;5051066;28;20033;-73
2023/05/13 10:05:48;;;;;;;2.10;1.20;;;22.90;38.40;;;;;;5052337;28;20025;-73
2023/05/13 10:08:16;;;;;;;1.67;1.20;;;23.00;38.30;;;;;;5052555;28;20075;-72
2023/05/13 10:10:44;;;;;;;1.50;1.40;;;23.00;38.30;;;;;;5053067;28;20048;-72
2023/05/13 10:13:15;;;;;;;2.17;1.27;;;23.00;38.20;;;;;;5052424;28;20034;-73
2023/05/13 10:15:52;;;;;;;4.43;2.67;;;23.10;38.20;;;;;;5052578;28;20029;-72
2023/05/13 10:18:19;;;;;;;5.72;3.88;;;23.10;38.00;;;;;;5052521;28;20540;-73
2023/05/13 10:20:45;;;;;;;5.97;3.67;;;23.20;38.00;;;;;;5055377;28;20114;-70
2023/05/13 10:23:11;;;;;;;3.83;2.80;;;23.20;37.90;;;;;;5056495;28;20050;-73
2023/05/13 10:25:37;;;;;;;3.42;2.42;;;23.30;37.90;;;;;;5056472;28;20414;-72
2023/05/13 10:28:04;;;;;;;3.00;2.30;;;23.30;37.80;;;;;;5056773;28;20032;-72
2023/05/13 10:30:34;;;;;;;2.85;2.17;;;23.30;37.70;;;;;;5054632;28;20096;-73
2023/05/13 10:33:02;;;;;;;1.98;1.75;;;23.40;37.60;;;;;;5054484;28;20029;-72
2023/05/13 10:35:33;;;;;;;1.67;1.58;;;23.40;37.60;;;;;;5055204;28;20025;-72
2023/05/13 10:38:19;;;;;;;1.70;1.60;;;23.40;37.50;;;;;;5056647;28;20047;-72
2023/05/13 10:41:18;;;;;;;1.60;1.50;;;23.40;37.50;;;;;;5055992;28;20421;-72
2023/05/13 10:43:44;;;;;;;2.03;1.50;;;23.50;37.30;;;;;;5054942;28;20037;-73
2023/05/13 10:46:11;;;;;;;1.80;1.65;;;23.50;37.40;;;;;;5056429;28;20047;-74
2023/05/13 10:48:42;;;;;;;1.75;1.60;;;23.60;37.40;;;;;;5056450;28;20428;-73
2023/05/13 10:51:09;;;;;;;2.50;1.80;;;23.60;37.40;;;;;;5055892;28;20603;-73
2023/05/13 10:53:55;;;;;;;4.32;1.65;;;23.60;37.30;;;;;;5055878;28;20040;-73
2023/05/13 10:56:23;;;;;;;2.50;1.48;;;23.60;37.20;;;;;;5055929;28;20118;-73
2023/05/13 10:59:03;;;;;;;1.50;1.40;;;23.60;37.20;;;;;;5055998;28;20032;-73
2023/05/13 11:01:34;;;;;;;4.18;1.70;;;23.60;37.10;;;;;;5055852;28;20029;-73
2023/05/13 11:04:02;;;;;;;2.13;1.63;;;23.70;37.10;;;;;;5054561;28;20379;-74
2023/05/13 11:06:48;;;;;;;1.95;1.60;;;23.70;37.10;;;;;;5055599;28;20021;-73
2023/05/13 11:09:29;;;;;;;2.17;1.50;;;23.70;36.90;;;;;;5055910;28;20125;-72
2023/05/13 11:11:56;;;;;;;1.50;1.40;;;23.70;37.00;;;;;;5055880;28;20068;-72
2023/05/13 11:14:24;;;;;;;1.52;1.42;;;23.70;37.10;;;;;;5055409;28;20025;-72
2023/05/13 11:16:54;;;;;;;1.42;1.33;;;23.60;37.00;;;;;;5055071;28;20043;-72
2023/05/13 11:19:24;;;;;;;2.42;1.30;;;23.70;37.00;;;;;;5055549;28;20027;-72
2023/05/13 11:21:52;;;;;;;1.90;1.20;;;23.70;36.90;;;;;;5055791;28;20025;-73
2023/05/13 11:24:19;;;;;;;1.40;1.30;;;23.70;36.80;;;;;;5055484;28;20100;-73
2023/05/13 11:26:47;;;;;;;1.77;1.50;;;23.70;36.70;;;;;;5055436;28;20067;-73
2023/05/13 11:29:13;;;;;;;2.38;1.70;;;23.70;36.80;;;;;;5055470;28;20016;-74
2023/05/13 11:31:47;;;;;;;2.72;1.60;;;23.70;36.70;;;;;;5054914;28;20049;-73
2023/05/13 11:34:17;;;;;;;1.67;1.58;;;23.70;36.80;;;;;;5055455;28;20029;-73
2023/05/13 11:36:47;;;;;;;1.45;1.35;;;23.70;36.80;;;;;;5053566;28;20045;-72
2023/05/13 11:39:16;;;;;;;1.60;1.50;;;23.70;36.80;;;;;;5053773;28;20116;-71
2023/05/13 11:41:47;;;;;;;1.50;1.40;;;23.60;36.70;;;;;;5055016;28;20033;-71
2023/05/13 11:44:14;;;;;;;3.42;1.50;;;23.60;36.70;;;;;;5055161;28;20378;-72
2023/05/13 11:46:52;;;;;;;3.33;1.40;;;23.60;36.60;;;;;;5055349;28;20033;-72
2023/05/13 11:49:41;;;;;;;1.90;1.40;;;23.60;36.50;;;;;;5053707;28;20021;-73
2023/05/13 11:52:15;;;;;;;1.50;1.40;;;23.60;36.30;;;;;;5054888;28;20075;-73
2023/05/13 11:54:44;;;;;;;1.52;1.42;;;23.60;36.50;;;;;;5055048;28;20025;-72
2023/05/13 11:57:25;;;;;;;1.67;1.40;;;23.60;36.50;;;;;;5054092;28;20033;-73
2023/05/13 11:59:53;;;;;;;1.65;1.50;;;23.70;36.50;;;;;;5055244;28;20371;-73
2023/05/13 12:02:24;;;;;;;1.75;1.40;;;23.60;36.40;;;;;;5054832;28;20033;-73
2023/05/13 12:04:51;;;;;;;1.98;1.42;;;23.70;36.40;;;;;;5054502;28;20055;-73
2023/05/13 12:07:22;;;;;;;1.38;1.27;;;23.70;36.30;;;;;;5052905;28;20040;-74
2023/05/13 12:09:48;;;;;;;1.60;1.50;;;23.80;36.30;;;;;;5054867;28;20021;-72
2023/05/13 12:12:15;;;;;;;1.17;1.10;;;23.80;36.30;;;;;;5054651;28;20105;-71
2023/05/13 12:14:45;;;;;;;1.48;1.35;;;23.90;36.10;;;;;;5053330;28;20471;-72
2023/05/13 12:17:14;;;;;;;1.42;1.15;;;23.90;36.00;;;;;;5053938;28;20064;-71
2023/05/13 12:19:58;;;;;;;1.30;1.20;;;24.00;35.90;;;;;;5054398;28;20033;-72
2023/05/13 12:22:24;;;;;;;1.20;1.08;;;24.00;35.80;;;;;;5054554;28;20419;-72
2023/05/13 12:24:50;;;;;;;1.52;1.42;;;24.10;35.70;;;;;;5054407;28;20053;-71
2023/05/13 12:27:16;;;;;;;1.10;1.05;;;24.20;35.70;;;;;;5052742;28;20062;-72
2023/05/13 12:29:42;;;;;;;2.38;1.30;;;24.20;35.60;;;;;;5054103;28;20102;-72
2023/05/13 12:32:10;;;;;;;1.27;1.17;;;24.30;35.60;;;;;;5054279;28;20052;-73
2023/05/13 12:34:37;;;;;;;1.27;1.20;;;24.30;35.50;;;;;;5054317;28;20111;-73
2023/05/13 12:37:13;;;;;;;2.35;1.50;;;24.40;35.50;;;;;;5052447;28;20040;-72
2023/05/13 12:39:40;;;;;;;2.15;1.23;;;24.50;35.40;;;;;;5053877;28;20067;-72
2023/05/13 12:42:13;;;;;;;1.60;1.20;;;24.50;35.30;;;;;;5053137;28;20025;-72
2023/05/13 12:44:41;;;;;;;1.40;1.30;;;24.70;35.30;;;;;;5053868;28;20024;-72
2023/05/13 12:47:07;;;;;;;1.77;1.20;;;24.70;35.10;;;;;;5053637;28;20043;-72
2023/05/13 12:49:33;;;;;;;1.35;1.25;;;24.80;35.00;;;;;;5053998;28;20112;-72